»·PEaware :: N180NY L35-KWJF

N180NY :: L35-KWJF

FLIGHT INFORMATION

Flight Status: Arrived
Operator: Privately registered:
United States
More flights under this callsign
Pilot: Jari J. (4222)
Aircraft: CESSNA 172 SKYHAWK
(C172)
More flights by this aircraft type
Origin: L35 Big Bear City
United States
Destination: KWJF Gen Fox
United States
More flights between these airports :: More routes between these airports
Route: +DCT
File this flight plan on PilotEdge
Remarks:
Altitude:
(Current/Filed)
2,000ft
Speed:
(Current/Filed)
100kts
Departed: 27-Jun-14 06:11 PM
Arrived: 27-Jun-14 07:05 PM
Distance/Time
Traveled:
73nm/0:54
Distance/Time
To Go:
Arrived

Flight Plot

Page will automatically refresh every two minutes.


Map Options




Map Legend


Flown Route
Filed Route
Departure Airport
Arrival Airport
Navaid (VOR, NDB)
Fix

Horizontal Profiles

Position Reports

Time Latitude Longitude Heading Altitude Ground
Speed
27-Jun-14 17:40 34.262691 -116.852869 0 6751ft 0kts
27-Jun-14 17:41 34.262691 -116.852869 0 6751ft 0kts
27-Jun-14 17:42 34.262691 -116.852869 0 6751ft 0kts
27-Jun-14 17:43 34.262691 -116.852869 0 6751ft 0kts
27-Jun-14 17:44 34.262691 -116.852869 0 6751ft 0kts
27-Jun-14 17:45 34.262691 -116.852869 0 6751ft 0kts
27-Jun-14 17:46 34.263092 -116.849657 359 6751ft 0kts
27-Jun-14 17:47 34.263092 -116.849657 359 6751ft 0kts
27-Jun-14 17:48 34.263092 -116.849657 359 6751ft 0kts
27-Jun-14 17:49 34.263092 -116.849657 359 6751ft 0kts
27-Jun-14 17:50 34.263092 -116.849657 359 6751ft 0kts
27-Jun-14 17:51 34.263092 -116.849657 359 6751ft 0kts
27-Jun-14 17:52 34.263092 -116.849657 359 6751ft 0kts
27-Jun-14 17:53 34.263092 -116.849657 359 6751ft 0kts
27-Jun-14 17:54 34.263092 -116.849657 359 6751ft 0kts
27-Jun-14 17:55 34.263092 -116.849657 359 6751ft 0kts
27-Jun-14 17:56 34.263092 -116.849657 359 6751ft 0kts
27-Jun-14 17:57 34.263092 -116.849657 359 6751ft 0kts
27-Jun-14 17:58 34.263092 -116.849657 0 6751ft 0kts
27-Jun-14 17:59 34.263095 -116.849657 0 6751ft 0kts
27-Jun-14 18:00 34.263097 -116.849657 0 6751ft 0kts
27-Jun-14 18:01 34.263099 -116.849657 0 6751ft 0kts
27-Jun-14 18:02 34.263102 -116.849657 0 6751ft 0kts
27-Jun-14 18:03 34.263104 -116.849657 0 6751ft 0kts
27-Jun-14 18:04 34.263106 -116.849657 0 6751ft 0kts
27-Jun-14 18:05 34.263294 -116.846952 90 6751ft 13kts
27-Jun-14 18:06 34.263431 -116.846415 358 6751ft 0kts
27-Jun-14 18:07 34.263433 -116.846415 358 6751ft 0kts
27-Jun-14 18:08 34.263437 -116.846416 358 6751ft 0kts
27-Jun-14 18:09 34.263891 -116.846601 260 6751ft 5kts
27-Jun-14 18:10 34.263752 -116.857500 261 6969ft 69kts
27-Jun-14 18:11 34.261165 -116.880561 263 7708ft 69kts
27-Jun-14 18:12 34.257986 -116.905579 267 7976ft 78kts
27-Jun-14 18:13 34.257501 -116.930652 270 8375ft 68kts
27-Jun-14 18:14 34.271328 -116.948367 308 8804ft 71kts
27-Jun-14 18:15 34.281127 -116.971228 283 8976ft 91kts
27-Jun-14 18:16 34.282754 -117.003825 268 8955ft 92kts
27-Jun-14 18:17 34.284098 -117.036938 286 8917ft 109kts
27-Jun-14 18:18 34.300216 -117.065900 307 8877ft 92kts
27-Jun-14 18:19 34.313867 -117.089544 308 8852ft 81kts
27-Jun-14 18:20 34.326716 -117.111696 308 8838ft 80kts
27-Jun-14 18:21 34.340611 -117.135404 308 8830ft 96kts
27-Jun-14 18:22 34.356838 -117.162475 308 8823ft 98kts
27-Jun-14 18:23 34.376851 -117.183561 324 8673ft 96kts
27-Jun-14 18:24 34.392047 -117.207113 301 8148ft 86kts
27-Jun-14 18:25 34.402063 -117.234164 297 7645ft 89kts
27-Jun-14 18:26 34.415884 -117.259654 309 7169ft 94kts
27-Jun-14 18:27 34.429329 -117.288003 288 6659ft 103kts
27-Jun-14 18:28 34.437121 -117.321000 290 6226ft 97kts
27-Jun-14 18:29 34.443575 -117.349522 291 6225ft 83kts
27-Jun-14 18:30 34.450008 -117.375948 292 6227ft 81kts
27-Jun-14 18:31 34.456385 -117.401308 292 6256ft 76kts
27-Jun-14 18:32 34.463501 -117.428237 293 6235ft 91kts
27-Jun-14 18:33 34.471752 -117.458799 292 6175ft 96kts
27-Jun-14 18:34 34.479815 -117.488440 293 6241ft 91kts
27-Jun-14 18:35 34.488104 -117.518585 293 6250ft 95kts
27-Jun-14 18:36 34.497064 -117.550704 292 6232ft 108kts
27-Jun-14 18:37 34.506260 -117.585270 292 6229ft 102kts
27-Jun-14 18:38 34.514931 -117.617593 292 6246ft 100kts
27-Jun-14 18:39 34.523154 -117.650415 291 5911ft 97kts
27-Jun-14 18:40 34.532152 -117.683525 292 5519ft 111kts
27-Jun-14 18:41 34.541909 -117.718356 289 5143ft 104kts
27-Jun-14 18:42 34.553959 -117.747848 300 4763ft 89kts
27-Jun-14 18:43 34.568277 -117.771198 300 4503ft 78kts
27-Jun-14 18:44 34.580969 -117.790839 301 4512ft 72kts
27-Jun-14 18:45 34.593676 -117.809544 300 4488ft 72kts
27-Jun-14 18:46 34.606814 -117.827822 303 4502ft 70kts
27-Jun-14 18:47 34.619979 -117.845969 302 4524ft 68kts
27-Jun-14 18:48 34.629648 -117.861720 292 4522ft 66kts
27-Jun-14 18:49 34.637643 -117.885435 280 4487ft 71kts
27-Jun-14 18:50 34.647557 -117.905797 286 4464ft 71kts
27-Jun-14 18:51 34.656756 -117.926017 293 4474ft 73kts
27-Jun-14 18:52 34.665533 -117.942516 293 4516ft 78kts
27-Jun-14 18:53 34.678570 -117.968253 291 4514ft 65kts
27-Jun-14 18:54 34.687961 -117.986547 292 4492ft 80kts
27-Jun-14 18:55 34.698882 -118.007591 292 4675ft 64kts
27-Jun-14 18:56 34.710128 -118.029523 292 4503ft 74kts
27-Jun-14 18:57 34.710752 -118.053233 272 4662ft 74kts
27-Jun-14 18:58 34.723141 -118.073614 302 4984ft 74kts
27-Jun-14 18:59 34.732731 -118.100465 286 4378ft 85kts
27-Jun-14 19:00 34.746505 -118.124810 291 3909ft 84kts
27-Jun-14 19:01 34.753563 -118.150962 273 3471ft 74kts
27-Jun-14 19:02 34.752399 -118.175392 249 2853ft 65kts
27-Jun-14 19:03 34.748019 -118.193099 251 2614ft 45kts
27-Jun-14 19:04 34.744093 -118.207163 246 2374ft 38kts
27-Jun-14 19:05 34.742303 -118.210492 176 2351ft 10kts
27-Jun-14 19:06 34.741067 -118.213746 204 2351ft 5kts
27-Jun-14 19:07 34.739291 -118.213612 160 2351ft 11kts
27-Jun-14 19:08 34.739190 -118.213567 156 2351ft 0kts

Navigation Log

Ident Type
Flight plan parsing failed, navigation log unavailable